createdAt,value
2023-04-25T00:00:37.089Z,100.00
2023-04-25T00:03:06.849Z,100.00
2023-04-25T00:05:38.397Z,100.00
2023-04-25T00:08:12.861Z,100.00
2023-04-25T00:10:40.309Z,100.00
2023-04-25T00:13:09.461Z,100.00
2023-04-25T00:15:37.369Z,100.00
2023-04-25T00:18:04.795Z,100.00
2023-04-25T00:20:32.163Z,100.00
2023-04-25T00:22:59.607Z,100.00
2023-04-25T00:25:32.743Z,100.00
2023-04-25T00:28:01.136Z,99.81
2023-04-25T00:30:28.609Z,99.04
2023-04-25T00:32:57.184Z,98.33
2023-04-25T00:35:24.648Z,99.11
2023-04-25T00:37:52.008Z,98.54
2023-04-25T00:40:19.479Z,99.24
2023-04-25T00:42:47.900Z,100.00
2023-04-25T00:45:16.982Z,100.00
2023-04-25T00:47:44.920Z,100.00
2023-04-25T00:50:14.336Z,99.93
2023-04-25T00:52:44.813Z,99.69
2023-04-25T00:55:12.652Z,98.28
2023-04-25T00:57:40.502Z,98.19
2023-04-25T01:02:51.342Z,97.11
2023-04-25T01:05:20.270Z,94.74
2023-04-25T01:07:48.562Z,95.87
2023-04-25T01:10:16.458Z,96.66
2023-04-25T01:12:43.713Z,95.25
2023-04-25T01:15:11.414Z,96.08
2023-04-25T01:17:45.928Z,94.97
2023-04-25T01:20:15.293Z,94.00
2023-04-25T01:22:43.292Z,94.95
2023-04-25T01:25:11.719Z,94.59
2023-04-25T01:27:39.528Z,93.86
2023-04-25T01:30:08.885Z,93.70
2023-04-25T01:32:39.732Z,94.82
2023-04-25T01:35:12.650Z,93.97
2023-04-25T01:37:44.584Z,93.60
2023-04-25T01:40:13.750Z,93.17
2023-04-25T01:42:43.594Z,92.59
2023-04-25T01:45:13.408Z,93.24
2023-04-25T01:47:44.988Z,92.87
2023-04-25T01:50:14.604Z,92.17
2023-04-25T01:52:44.114Z,91.69
2023-04-25T01:55:13.479Z,90.87
2023-04-25T01:57:41.139Z,89.31
2023-04-25T02:00:10.254Z,90.87
2023-04-25T02:02:37.803Z,91.34
2023-04-25T02:05:05.945Z,89.90
2023-04-25T02:07:34.050Z,90.86
2023-04-25T02:10:01.347Z,90.55
2023-04-25T02:12:30.096Z,90.06
2023-04-25T02:14:57.791Z,90.39
2023-04-25T02:17:25.238Z,89.88
2023-04-25T02:19:52.693Z,90.44
2023-04-25T02:22:20.168Z,90.66
2023-04-25T02:24:48.046Z,89.39
2023-04-25T02:27:16.714Z,90.07
2023-04-25T02:29:50.840Z,90.44
2023-04-25T02:32:18.268Z,90.17
2023-04-25T02:34:45.890Z,89.09
2023-04-25T02:37:14.715Z,89.54
2023-04-25T02:39:44.215Z,89.97
2023-04-25T02:42:12.481Z,89.43
2023-04-25T02:44:39.910Z,89.57
2023-04-25T02:47:08.494Z,90.15
2023-04-25T02:49:35.970Z,90.46
2023-04-25T02:52:04.443Z,91.65
2023-04-25T02:54:32.166Z,91.63
2023-04-25T02:57:00.229Z,92.40
2023-04-25T02:59:27.849Z,92.64
2023-04-25T03:01:54.838Z,93.33
2023-04-25T03:04:25.081Z,90.97
2023-04-25T03:06:52.660Z,91.00
2023-04-25T03:09:20.813Z,90.78
2023-04-25T03:11:50.141Z,91.86
2023-04-25T03:14:17.583Z,91.65
2023-04-25T03:16:45.102Z,91.50
2023-04-25T03:19:12.661Z,89.79
2023-04-25T03:21:40.100Z,89.74
2023-04-25T03:24:07.506Z,90.34
2023-04-25T03:26:34.960Z,90.89
2023-04-25T03:29:02.350Z,90.11
2023-04-25T03:31:29.816Z,89.57
2023-04-25T03:33:58.273Z,89.35
2023-04-25T03:36:26.039Z,90.52
2023-04-25T03:38:59.375Z,91.51
2023-04-25T03:41:27.066Z,91.83
2023-04-25T03:43:54.242Z,91.41
2023-04-25T03:46:21.793Z,91.22
2023-04-25T03:48:49.382Z,92.29
2023-04-25T03:51:17.017Z,92.24
2023-04-25T03:53:51.263Z,92.39
2023-04-25T03:56:21.490Z,92.46
2023-04-25T03:58:50.926Z,92.67
2023-04-25T04:01:18.292Z,93.03
2023-04-25T04:03:46.197Z,92.50
2023-04-25T04:06:14.454Z,91.93
2023-04-25T04:08:49.558Z,93.05
2023-04-25T04:11:17.047Z,93.43
2023-04-25T04:13:44.572Z,94.03
2023-04-25T04:16:12.921Z,93.92
2023-04-25T04:18:47.196Z,94.17
2023-04-25T04:21:14.351Z,94.35
2023-04-25T04:23:42.155Z,94.50
2023-04-25T04:26:11.381Z,92.24
2023-04-25T04:28:39.254Z,92.96
2023-04-25T04:31:07.201Z,92.98
2023-04-25T04:33:34.671Z,93.27
2023-04-25T04:36:03.942Z,93.60
2023-04-25T04:38:32.239Z,93.56
2023-04-25T04:40:59.670Z,93.93
2023-04-25T04:43:26.716Z,93.04
2023-04-25T04:45:57.373Z,93.87
2023-04-25T04:48:33.902Z,93.64
2023-04-25T04:51:01.745Z,93.40
2023-04-25T04:53:29.337Z,93.82
2023-04-25T04:56:02.902Z,94.21
2023-04-25T04:58:32.170Z,95.90
2023-04-25T05:00:59.356Z,97.25
2023-04-25T05:03:28.580Z,98.28
2023-04-25T05:05:57.341Z,100.00
2023-04-25T05:08:24.731Z,100.00
2023-04-25T05:10:52.458Z,100.00
2023-04-25T05:13:20.719Z,100.00
2023-04-25T05:15:48.214Z,100.00
2023-04-25T05:18:15.842Z,100.00
2023-04-25T05:20:43.531Z,99.95
2023-04-25T05:23:12.162Z,98.21
2023-04-25T05:25:41.650Z,99.98
2023-04-25T05:28:09.500Z,98.00
2023-04-25T05:30:37.694Z,96.33
2023-04-25T05:33:05.163Z,96.04
2023-04-25T05:35:33.690Z,94.64
2023-04-25T05:38:01.094Z,92.66
2023-04-25T05:40:29.494Z,91.76
2023-04-25T05:42:57.009Z,90.03
2023-04-25T05:45:26.514Z,87.33
2023-04-25T05:47:54.905Z,85.99
2023-04-25T05:50:23.412Z,84.52
2023-04-25T05:52:52.297Z,85.76
2023-04-25T05:55:19.816Z,84.71
2023-04-25T05:57:47.732Z,83.94
2023-04-25T06:00:17.192Z,81.89
2023-04-25T06:02:44.468Z,81.02
2023-04-25T06:05:13.009Z,81.52
2023-04-25T06:07:40.794Z,79.24
2023-04-25T06:10:10.794Z,79.85
2023-04-25T06:12:40.158Z,79.27
2023-04-25T06:15:20.196Z,78.76
2023-04-25T06:17:54.245Z,79.61
2023-04-25T06:20:24.432Z,78.66
2023-04-25T06:22:53.930Z,78.17
2023-04-25T06:25:22.376Z,77.90
2023-04-25T06:27:49.522Z,79.45
2023-04-25T06:30:19.558Z,78.33
2023-04-25T06:32:47.042Z,78.88
2023-04-25T06:35:16.449Z,76.93
2023-04-25T06:37:43.933Z,77.04
2023-04-25T06:40:12.644Z,78.55
2023-04-25T06:42:41.086Z,79.74
2023-04-25T06:45:08.882Z,77.61
2023-04-25T06:47:36.395Z,78.07
2023-04-25T06:50:04.074Z,76.38
2023-04-25T06:52:31.566Z,76.76
2023-04-25T06:54:58.662Z,77.41
2023-04-25T06:57:25.746Z,76.74
2023-04-25T06:59:53.186Z,78.22
2023-04-25T07:02:20.431Z,80.71
2023-04-25T07:04:49.912Z,77.37
2023-04-25T07:07:18.329Z,76.60
2023-04-25T07:09:56.727Z,74.42
2023-04-25T07:12:23.791Z,72.69
2023-04-25T07:14:51.277Z,74.34
2023-04-25T07:17:18.665Z,73.55
2023-04-25T07:19:46.443Z,74.45
2023-04-25T07:22:13.623Z,73.22
2023-04-25T07:24:49.994Z,74.54
2023-04-25T07:27:18.364Z,73.57
2023-04-25T07:29:46.842Z,73.18
2023-04-25T07:32:15.334Z,73.76
2023-04-25T07:34:54.891Z,74.57
2023-04-25T07:37:21.989Z,70.77
2023-04-25T07:39:50.353Z,70.99
2023-04-25T07:42:19.866Z,71.76
2023-04-25T07:44:47.189Z,68.42
2023-04-25T07:47:14.998Z,71.54
2023-04-25T07:49:42.388Z,71.98
2023-04-25T07:52:09.782Z,66.46
2023-04-25T07:54:38.192Z,68.41
2023-04-25T07:57:07.649Z,68.10
2023-04-25T07:59:36.197Z,63.91
2023-04-25T08:02:03.908Z,65.98
2023-04-25T08:04:31.152Z,62.13
2023-04-25T08:06:59.658Z,60.42
2023-04-25T08:09:27.029Z,61.49
2023-04-25T08:11:54.608Z,62.40
2023-04-25T08:14:23.921Z,60.12
2023-04-25T08:16:52.467Z,59.57
2023-04-25T08:19:19.885Z,62.17
2023-04-25T08:21:47.383Z,58.76
2023-04-25T08:24:14.733Z,59.66
2023-04-25T08:26:42.525Z,58.55
2023-04-25T08:29:09.723Z,58.81
2023-04-25T08:31:37.202Z,59.97
2023-04-25T08:34:04.696Z,57.40
2023-04-25T08:36:39.378Z,58.29
2023-04-25T08:39:07.251Z,58.59
2023-04-25T08:41:35.027Z,58.94
2023-04-25T08:44:05.123Z,58.80
2023-04-25T08:46:33.390Z,58.75
2023-04-25T08:49:03.569Z,57.91
2023-04-25T08:51:33.869Z,59.26
2023-04-25T08:56:46.814Z,58.50
2023-04-25T08:59:15.607Z,59.58
2023-04-25T09:01:42.704Z,59.88
2023-04-25T09:04:11.195Z,59.51
2023-04-25T09:06:38.520Z,60.51
2023-04-25T09:09:10.085Z,60.30
2023-04-25T09:11:38.198Z,60.64
2023-04-25T09:14:22.195Z,60.72
2023-04-25T09:17:02.457Z,59.57
2023-04-25T09:19:41.048Z,59.09
2023-04-25T09:22:09.636Z,59.23
2023-04-25T09:24:42.982Z,59.75
2023-04-25T09:27:24.168Z,58.61
2023-04-25T09:30:02.933Z,59.18
2023-04-25T09:32:31.343Z,60.72
2023-04-25T09:35:01.379Z,60.34
2023-04-25T09:37:31.565Z,60.15
2023-04-25T09:40:01.782Z,61.95
2023-04-25T09:42:32.669Z,61.52
2023-04-25T09:45:05.247Z,60.99
2023-04-25T09:47:33.406Z,58.15
2023-04-25T09:50:00.806Z,57.65
2023-04-25T09:52:27.900Z,60.47
2023-04-25T09:54:56.317Z,59.00
2023-04-25T09:57:27.919Z,57.39
2023-04-25T09:59:57.350Z,57.36
2023-04-25T10:02:27.077Z,58.09
2023-04-25T10:04:57.578Z,59.55
2023-04-25T10:07:29.108Z,59.87
2023-04-25T10:10:05.038Z,59.46
2023-04-25T10:12:34.846Z,60.09
2023-04-25T10:15:04.672Z,59.83
2023-04-25T10:17:32.880Z,57.12
2023-04-25T10:20:04.221Z,56.42
2023-04-25T10:22:35.595Z,57.35
2023-04-25T10:25:05.468Z,56.50
2023-04-25T10:27:35.694Z,57.35
2023-04-25T10:30:07.674Z,56.60
2023-04-25T10:32:37.311Z,55.06
2023-04-25T10:35:25.754Z,53.68
2023-04-25T10:38:25.644Z,54.52
2023-04-25T10:41:09.565Z,55.29
2023-04-25T10:43:43.836Z,52.86
2023-04-25T10:46:28.566Z,52.44
2023-04-25T10:48:58.659Z,49.06
2023-04-25T10:51:51.002Z,51.10
2023-04-25T10:54:21.458Z,50.94
2023-04-25T10:56:50.887Z,52.89
2023-04-25T10:59:20.143Z,52.09
2023-04-25T11:01:50.368Z,51.52
2023-04-25T11:04:26.814Z,53.88
2023-04-25T11:07:11.926Z,55.45
2023-04-25T11:09:42.685Z,53.04
2023-04-25T11:12:13.102Z,53.19
2023-04-25T11:17:19.254Z,52.93
2023-04-25T11:19:50.626Z,53.50
2023-04-25T11:22:18.774Z,54.83
2023-04-25T11:24:46.913Z,54.58
2023-04-25T11:27:16.396Z,54.15
2023-04-25T11:29:43.919Z,53.01
2023-04-25T11:32:19.783Z,52.19
2023-04-25T11:34:48.559Z,52.31
2023-04-25T11:37:22.381Z,52.67
2023-04-25T11:39:49.803Z,52.52
2023-04-25T11:42:17.380Z,51.59
2023-04-25T11:44:45.150Z,52.21
2023-04-25T11:47:13.266Z,51.34
2023-04-25T11:49:40.837Z,49.88
2023-04-25T11:52:10.392Z,49.36
2023-04-25T11:54:39.658Z,50.41
2023-04-25T11:57:07.733Z,51.70
2023-04-25T11:59:35.203Z,51.03
2023-04-25T12:02:03.210Z,50.68
2023-04-25T12:04:34.076Z,51.50
2023-04-25T12:07:03.055Z,53.00
2023-04-25T12:09:35.169Z,54.80
2023-04-25T12:12:07.085Z,51.80
2023-04-25T12:14:37.024Z,55.44
2023-04-25T12:17:09.457Z,52.85
2023-04-25T12:19:43.045Z,53.87
2023-04-25T12:22:24.394Z,53.59
2023-04-25T12:24:54.543Z,52.73
2023-04-25T12:27:22.465Z,52.51
2023-04-25T12:29:54.488Z,52.73
2023-04-25T12:32:23.106Z,53.72
2023-04-25T12:34:50.322Z,52.77
2023-04-25T12:37:17.745Z,52.81
2023-04-25T12:39:45.182Z,52.55
2023-04-25T12:42:15.420Z,51.98
2023-04-25T12:44:43.707Z,52.16
2023-04-25T12:47:11.578Z,53.60
2023-04-25T12:49:41.262Z,53.49
2023-04-25T12:52:08.759Z,51.13
2023-04-25T12:54:36.533Z,50.09
2023-04-25T12:57:04.243Z,50.27
2023-04-25T12:59:32.640Z,47.88
2023-04-25T13:02:00.724Z,46.84
2023-04-25T13:04:28.218Z,48.95
2023-04-25T13:06:56.518Z,48.96
2023-04-25T13:09:23.898Z,49.15
2023-04-25T13:11:51.810Z,49.91
2023-04-25T13:14:19.521Z,51.27
2023-04-25T13:16:47.291Z,47.58
2023-04-25T13:19:15.968Z,49.78
2023-04-25T13:21:43.474Z,49.08
2023-04-25T13:24:11.080Z,50.05
2023-04-25T13:26:38.512Z,50.50
2023-04-25T13:29:05.959Z,50.46
2023-04-25T13:31:33.409Z,49.89
2023-04-25T13:34:01.912Z,49.37
2023-04-25T13:36:29.409Z,49.42
2023-04-25T13:38:56.714Z,49.25
2023-04-25T13:41:24.168Z,49.30
2023-04-25T13:43:51.890Z,50.13
2023-04-25T13:48:52.806Z,49.25
2023-04-25T13:51:23.226Z,48.07
2023-04-25T13:53:51.262Z,47.79
2023-04-25T13:56:20.904Z,46.75
2023-04-25T13:58:49.088Z,48.96
2023-04-25T14:01:16.690Z,50.24
2023-04-25T14:03:44.311Z,50.85
2023-04-25T14:06:12.449Z,51.65
2023-04-25T14:08:41.415Z,50.80
2023-04-25T14:11:08.505Z,50.88
2023-04-25T14:13:37.970Z,50.30
2023-04-25T14:16:06.524Z,50.62
2023-04-25T14:18:33.925Z,50.51
2023-04-25T14:21:02.592Z,48.74
2023-04-25T14:23:29.874Z,50.41
2023-04-25T14:25:57.602Z,52.33
2023-04-25T14:28:24.717Z,51.35
2023-04-25T14:30:52.777Z,51.53
2023-04-25T14:33:20.185Z,50.99
2023-04-25T14:35:47.770Z,51.03
2023-04-25T14:38:15.826Z,50.46
2023-04-25T14:40:43.900Z,49.66
2023-04-25T14:43:11.038Z,47.18
2023-04-25T14:45:38.597Z,48.25
2023-04-25T14:48:06.178Z,45.47
2023-04-25T14:50:33.790Z,44.82
2023-04-25T14:53:02.031Z,45.75
2023-04-25T14:55:29.591Z,46.48
2023-04-25T14:57:57.671Z,48.06
2023-04-25T15:00:26.462Z,48.54
2023-04-25T15:02:53.779Z,47.27
2023-04-25T15:05:21.642Z,49.67
2023-04-25T15:07:49.233Z,48.41
2023-04-25T15:10:19.070Z,50.74
2023-04-25T15:12:47.849Z,47.04
2023-04-25T15:15:22.668Z,47.31
2023-04-25T15:17:57.167Z,45.66
2023-04-25T15:20:26.371Z,45.63
2023-04-25T15:22:53.668Z,46.07
2023-04-25T15:25:21.426Z,46.35
2023-04-25T15:27:49.813Z,47.13
2023-04-25T15:30:18.192Z,46.89
2023-04-25T15:32:47.907Z,48.32
2023-04-25T15:35:16.565Z,47.90
2023-04-25T15:37:44.402Z,48.08
2023-04-25T15:40:14.949Z,48.27
2023-04-25T15:42:48.849Z,48.12
2023-04-25T15:45:18.100Z,47.85
2023-04-25T15:47:45.984Z,48.63
2023-04-25T15:50:15.403Z,49.66
2023-04-25T15:52:58.332Z,49.76
2023-04-25T15:55:27.115Z,49.41
2023-04-25T15:57:54.496Z,50.88
2023-04-25T16:00:23.118Z,49.77
2023-04-25T16:02:50.419Z,49.99
2023-04-25T16:05:18.745Z,50.10
2023-04-25T16:07:48.189Z,49.50
2023-04-25T16:10:20.197Z,49.21
2023-04-25T16:12:49.075Z,49.03
2023-04-25T16:15:18.822Z,50.17
2023-04-25T16:17:46.121Z,52.00
2023-04-25T16:20:13.700Z,53.08
2023-04-25T16:22:44.623Z,52.42
2023-04-25T16:25:14.716Z,52.17
2023-04-25T16:27:41.908Z,52.75
2023-04-25T16:30:11.336Z,52.46
2023-04-25T16:32:40.281Z,52.52
2023-04-25T16:35:09.938Z,53.96
2023-04-25T16:37:37.418Z,51.42
2023-04-25T16:40:05.180Z,51.66
2023-04-25T16:42:32.317Z,53.65
2023-04-25T16:44:59.661Z,53.13
2023-04-25T16:47:27.193Z,52.63
2023-04-25T16:49:54.890Z,53.90
2023-04-25T16:52:23.984Z,53.49
2023-04-25T16:54:51.656Z,53.41
2023-04-25T16:57:19.027Z,53.92
2023-04-25T16:59:46.994Z,54.69
2023-04-25T17:02:15.348Z,55.22
2023-04-25T17:04:43.445Z,55.35
2023-04-25T17:07:11.554Z,56.86
2023-04-25T17:09:39.928Z,56.66
2023-04-25T17:12:08.401Z,57.38
2023-04-25T17:14:37.564Z,58.34
2023-04-25T17:17:06.070Z,57.56
2023-04-25T17:19:34.744Z,57.48
2023-04-25T17:22:02.550Z,58.19
2023-04-25T17:24:30.598Z,56.96
2023-04-25T17:26:58.874Z,57.39
2023-04-25T17:29:29.649Z,57.28
2023-04-25T17:31:58.468Z,56.86
2023-04-25T17:34:25.998Z,57.25
2023-04-25T17:36:55.039Z,57.56
2023-04-25T17:39:22.297Z,57.56
2023-04-25T17:41:51.084Z,58.33
2023-04-25T17:44:18.708Z,59.68
2023-04-25T17:46:46.786Z,60.45
2023-04-25T17:49:14.664Z,60.89
2023-04-25T17:51:42.209Z,62.25
2023-04-25T17:54:09.869Z,62.57
2023-04-25T17:56:45.905Z,64.07
2023-04-25T17:59:13.159Z,64.61
2023-04-25T18:01:47.584Z,65.03
2023-04-25T18:04:16.391Z,65.81
2023-04-25T18:06:44.555Z,66.53
2023-04-25T18:09:17.980Z,67.19
2023-04-25T18:11:46.361Z,67.45
2023-04-25T18:14:17.366Z,66.75
2023-04-25T18:16:45.809Z,68.12
2023-04-25T18:19:16.544Z,68.55
2023-04-25T18:21:49.024Z,70.74
2023-04-25T18:24:27.554Z,71.56
2023-04-25T18:26:56.817Z,72.16
2023-04-25T18:29:32.833Z,73.75
2023-04-25T18:32:01.680Z,73.96
2023-04-25T18:34:31.037Z,74.93
2023-04-25T18:36:59.170Z,76.08
2023-04-25T18:39:28.080Z,76.53
2023-04-25T18:42:06.456Z,77.39
2023-04-25T18:44:40.414Z,76.75
2023-04-25T18:47:10.693Z,76.76
2023-04-25T18:49:40.884Z,77.81
2023-04-25T18:52:11.279Z,78.15
2023-04-25T18:54:39.572Z,79.11
2023-04-25T18:57:08.926Z,79.33
2023-04-25T18:59:37.650Z,79.72
2023-04-25T19:02:05.836Z,80.28
2023-04-25T19:04:34.284Z,80.74
2023-04-25T19:07:02.676Z,80.53
2023-04-25T19:09:31.678Z,79.80
2023-04-25T19:12:08.501Z,79.31
2023-04-25T19:14:36.552Z,80.49
2023-04-25T19:17:05.064Z,79.73
2023-04-25T19:19:33.179Z,78.84
2023-04-25T19:22:01.433Z,78.37
2023-04-25T19:24:29.628Z,78.72
2023-04-25T19:27:03.675Z,78.23
2023-04-25T19:29:33.457Z,75.93
2023-04-25T19:32:04.005Z,74.60
2023-04-25T19:34:32.218Z,73.82
2023-04-25T19:37:05.234Z,73.88
2023-04-25T19:39:33.350Z,74.18
2023-04-25T19:42:04.534Z,74.26
2023-04-25T19:44:33.335Z,74.66
2023-04-25T19:47:01.072Z,74.52
2023-04-25T19:49:30.370Z,74.26
2023-04-25T19:51:59.003Z,75.01
2023-04-25T19:54:26.889Z,75.91
2023-04-25T19:56:55.297Z,76.35
2023-04-25T19:59:22.861Z,75.87
2023-04-25T20:01:50.542Z,77.29
2023-04-25T20:04:18.797Z,77.62
2023-04-25T20:06:47.107Z,77.48
2023-04-25T20:09:14.971Z,78.10
2023-04-25T20:11:43.129Z,79.72
2023-04-25T20:14:12.910Z,79.83
2023-04-25T20:16:41.286Z,80.79
2023-04-25T20:19:13.006Z,81.74
2023-04-25T20:21:42.814Z,81.09
2023-04-25T20:24:12.233Z,81.14
2023-04-25T20:26:40.318Z,82.46
2023-04-25T20:29:08.497Z,82.39
2023-04-25T20:31:37.114Z,82.27
2023-04-25T20:34:04.598Z,82.30
2023-04-25T20:36:33.377Z,81.81
2023-04-25T20:39:01.229Z,81.58
2023-04-25T20:41:31.056Z,82.12
2023-04-25T20:44:05.515Z,81.23
2023-04-25T20:46:35.440Z,81.57
2023-04-25T20:49:05.339Z,82.09
2023-04-25T20:51:33.140Z,82.60
2023-04-25T20:54:00.708Z,82.45
2023-04-25T20:56:27.855Z,82.26
2023-04-25T20:58:56.395Z,81.60
2023-04-25T21:01:25.220Z,81.86
2023-04-25T21:03:59.425Z,80.87
2023-04-25T21:06:27.944Z,81.65
2023-04-25T21:08:55.513Z,81.28
2023-04-25T21:11:23.761Z,80.19
2023-04-25T21:13:52.097Z,79.89
2023-04-25T21:16:19.429Z,79.59
2023-04-25T21:18:46.813Z,80.33
2023-04-25T21:21:14.367Z,79.76
2023-04-25T21:23:42.946Z,80.01
2023-04-25T21:26:10.322Z,79.17
2023-04-25T21:28:37.855Z,80.54
2023-04-25T21:31:05.345Z,80.18
2023-04-25T21:33:32.666Z,79.41
2023-04-25T21:36:00.181Z,79.52
2023-04-25T21:38:27.768Z,79.93
2023-04-25T21:40:56.057Z,78.64
2023-04-25T21:43:23.502Z,79.37
2023-04-25T21:46:14.864Z,79.00
2023-04-25T21:48:38.402Z,78.17
2023-04-25T21:51:06.074Z,76.28
2023-04-25T21:53:33.255Z,76.05
2023-04-25T21:56:00.808Z,76.22
2023-04-25T21:58:28.241Z,75.38
2023-04-25T22:00:55.824Z,75.89
2023-04-25T22:03:23.033Z,76.12
2023-04-25T22:05:52.638Z,76.28
2023-04-25T22:08:20.091Z,75.87
2023-04-25T22:10:47.592Z,75.67
2023-04-25T22:13:15.546Z,75.15
2023-04-25T22:15:48.975Z,75.01
2023-04-25T22:18:16.622Z,75.93
2023-04-25T22:20:44.522Z,76.32
2023-04-25T22:23:12.359Z,75.71
2023-04-25T22:25:40.684Z,76.79
2023-04-25T22:28:20.733Z,78.26
2023-04-25T22:30:48.165Z,78.36
2023-04-25T22:33:15.706Z,79.09
2023-04-25T22:35:44.141Z,79.93
2023-04-25T22:38:11.705Z,80.85
2023-04-25T22:40:40.162Z,82.25
2023-04-25T22:43:08.533Z,84.38
2023-04-25T22:45:36.155Z,84.34
2023-04-25T22:48:03.833Z,86.44
2023-04-25T22:50:34.005Z,87.57
2023-04-25T22:53:01.991Z,89.00
2023-04-25T22:55:29.499Z,89.49
2023-04-25T22:57:57.900Z,89.57
2023-04-25T23:00:27.941Z,89.78
2023-04-25T23:02:55.274Z,89.98
2023-04-25T23:05:24.975Z,90.93
2023-04-25T23:07:59.432Z,90.87
2023-04-25T23:10:28.848Z,90.35
2023-04-25T23:13:00.716Z,91.01
2023-04-25T23:15:31.141Z,90.18
2023-04-25T23:17:58.976Z,91.23
2023-04-25T23:20:26.980Z,92.14
2023-04-25T23:22:55.351Z,93.21
2023-04-25T23:25:22.623Z,94.53
2023-04-25T23:27:49.942Z,95.64
2023-04-25T23:30:17.256Z,95.61
2023-04-25T23:32:45.188Z,95.78
2023-04-25T23:35:13.694Z,93.68
2023-04-25T23:37:41.334Z,92.51
2023-04-25T23:40:13.050Z,91.56
2023-04-25T23:42:41.466Z,90.04
2023-04-25T23:45:09.665Z,89.75
2023-04-25T23:47:37.731Z,88.30
2023-04-25T23:50:06.376Z,88.66
2023-04-25T23:52:33.734Z,89.07
2023-04-25T23:55:01.372Z,88.88
2023-04-25T23:57:30.668Z,88.45
2023-04-25T23:59:58.315Z,89.01
